Terminal Aerodrome Forecast
Issued by NWS

Home | Current Version | Previous Version | Text Only | Print | Product List | Glossary Off
Versions: 1 2 3 4 5 6 7 8 9 10 11 12 13 14 15 16 17 18 19

000
FTUS43 KMPX 192340
TAFAXN
TAF
KAXN 192340Z 2000/2024 03014KT 3SM -SN BR OVC025
     FM200700 04013KT 1 1/2SM -SN BR OVC011
     FM200900 03010KT 3/4SM -SN BR VV007
     FM201100 03009KT 2SM -SN BR OVC012
     FM201600 35010KT P6SM VCSH OVC015
     FM201800 33015G23KT P6SM OVC015=

USA.gov is the U.S. government's official web portal to all federal, state and local government web resources and services.